sensor_id;sensor_type;location;lat;lon;timestamp;temperature;humidity
9293;DHT22;69930;48.232;12.384;2023-12-20T00:01:08;4.20;99.90
9293;DHT22;69930;48.232;12.384;2023-12-20T00:03:36;4.20;99.90
9293;DHT22;69930;48.232;12.384;2023-12-20T00:06:04;4.20;99.90
9293;DHT22;69930;48.232;12.384;2023-12-20T00:08:31;4.20;99.90
9293;DHT22;69930;48.232;12.384;2023-12-20T00:10:58;4.30;99.90
9293;DHT22;69930;48.232;12.384;2023-12-20T00:13:25;4.30;99.90
9293;DHT22;69930;48.232;12.384;2023-12-20T00:15:52;4.30;99.90
9293;DHT22;69930;48.232;12.384;2023-12-20T00:18:19;4.30;99.90
9293;DHT22;69930;48.232;12.384;2023-12-20T00:20:48;4.40;99.90
9293;DHT22;69930;48.232;12.384;2023-12-20T00:23:15;4.50;99.90
9293;DHT22;69930;48.232;12.384;2023-12-20T00:25:42;4.50;99.90
9293;DHT22;69930;48.232;12.384;2023-12-20T00:28:09;4.50;99.90
9293;DHT22;69930;48.232;12.384;2023-12-20T00:30:36;4.60;99.90
9293;DHT22;69930;48.232;12.384;2023-12-20T00:33:04;4.70;99.90
9293;DHT22;69930;48.232;12.384;2023-12-20T00:35:31;4.80;99.90
9293;DHT22;69930;48.232;12.384;2023-12-20T00:37:59;4.90;99.90
9293;DHT22;69930;48.232;12.384;2023-12-20T00:40:27;5.00;99.90
9293;DHT22;69930;48.232;12.384;2023-12-20T00:42:54;5.10;99.90
9293;DHT22;69930;48.232;12.384;2023-12-20T00:45:21;5.20;99.90
9293;DHT22;69930;48.232;12.384;2023-12-20T00:47:48;5.30;99.90
9293;DHT22;69930;48.232;12.384;2023-12-20T00:50:15;5.40;99.90
9293;DHT22;69930;48.232;12.384;2023-12-20T00:52:42;5.40;99.90
9293;DHT22;69930;48.232;12.384;2023-12-20T00:55:11;5.40;99.90
9293;DHT22;69930;48.232;12.384;2023-12-20T00:57:38;5.30;99.90
9293;DHT22;69930;48.232;12.384;2023-12-20T01:00:06;5.30;99.90
9293;DHT22;69930;48.232;12.384;2023-12-20T01:02:35;5.20;99.90
9293;DHT22;69930;48.232;12.384;2023-12-20T01:05:02;5.10;99.90
9293;DHT22;69930;48.232;12.384;2023-12-20T01:07:29;5.10;99.90
9293;DHT22;69930;48.232;12.384;2023-12-20T01:09:57;5.00;99.90
9293;DHT22;69930;48.232;12.384;2023-12-20T01:12:25;5.00;99.90
9293;DHT22;69930;48.232;12.384;2023-12-20T01:14:52;5.00;99.90
9293;DHT22;69930;48.232;12.384;2023-12-20T01:17:19;4.90;99.90
9293;DHT22;69930;48.232;12.384;2023-12-20T01:19:46;4.90;99.90
9293;DHT22;69930;48.232;12.384;2023-12-20T01:22:14;4.90;99.90
9293;DHT22;69930;48.232;12.384;2023-12-20T01:24:41;4.90;99.90
9293;DHT22;69930;48.232;12.384;2023-12-20T01:27:08;5.10;99.90
9293;DHT22;69930;48.232;12.384;2023-12-20T01:29:37;5.10;99.90
9293;DHT22;69930;48.232;12.384;2023-12-20T01:32:05;5.30;99.90
9293;DHT22;69930;48.232;12.384;2023-12-20T01:34:32;5.40;99.90
9293;DHT22;69930;48.232;12.384;2023-12-20T01:36:59;5.50;99.90
9293;DHT22;69930;48.232;12.384;2023-12-20T01:39:27;5.60;99.90
9293;DHT22;69930;48.232;12.384;2023-12-20T01:41:54;5.60;99.90
9293;DHT22;69930;48.232;12.384;2023-12-20T01:44:21;5.70;99.90
9293;DHT22;69930;48.232;12.384;2023-12-20T01:46:49;5.80;99.90
9293;DHT22;69930;48.232;12.384;2023-12-20T01:49:17;5.80;99.90
9293;DHT22;69930;48.232;12.384;2023-12-20T01:51:45;5.90;99.90
9293;DHT22;69930;48.232;12.384;2023-12-20T01:54:12;5.90;99.90
9293;DHT22;69930;48.232;12.384;2023-12-20T01:56:40;6.00;99.90
9293;DHT22;69930;48.232;12.384;2023-12-20T01:59:07;6.00;99.90
9293;DHT22;69930;48.232;12.384;2023-12-20T02:01:35;6.10;99.90
9293;DHT22;69930;48.232;12.384;2023-12-20T02:04:04;6.10;99.90
9293;DHT22;69930;48.232;12.384;2023-12-20T02:06:34;6.20;99.90
9293;DHT22;69930;48.232;12.384;2023-12-20T02:09:01;6.30;99.90
9293;DHT22;69930;48.232;12.384;2023-12-20T02:11:28;6.30;99.90
9293;DHT22;69930;48.232;12.384;2023-12-20T02:13:56;6.20;99.90
9293;DHT22;69930;48.232;12.384;2023-12-20T02:16:23;6.20;99.90
9293;DHT22;69930;48.232;12.384;2023-12-20T02:18:50;6.10;99.90
9293;DHT22;69930;48.232;12.384;2023-12-20T02:21:25;6.10;99.90
9293;DHT22;69930;48.232;12.384;2023-12-20T02:23:52;6.10;99.90
9293;DHT22;69930;48.232;12.384;2023-12-20T02:26:19;6.10;99.90
9293;DHT22;69930;48.232;12.384;2023-12-20T02:28:46;6.10;99.90
9293;DHT22;69930;48.232;12.384;2023-12-20T02:31:14;6.10;99.90
9293;DHT22;69930;48.232;12.384;2023-12-20T02:33:41;6.10;99.90
9293;DHT22;69930;48.232;12.384;2023-12-20T02:36:09;6.10;99.90
9293;DHT22;69930;48.232;12.384;2023-12-20T02:38:37;6.10;99.90
9293;DHT22;69930;48.232;12.384;2023-12-20T02:41:05;6.10;99.90
9293;DHT22;69930;48.232;12.384;2023-12-20T02:43:32;6.10;99.90
9293;DHT22;69930;48.232;12.384;2023-12-20T02:45:59;6.10;99.90
9293;DHT22;69930;48.232;12.384;2023-12-20T02:48:26;6.10;99.90
9293;DHT22;69930;48.232;12.384;2023-12-20T02:50:54;6.10;99.90
9293;DHT22;69930;48.232;12.384;2023-12-20T02:53:22;6.10;99.90
9293;DHT22;69930;48.232;12.384;2023-12-20T02:55:50;6.10;99.90
9293;DHT22;69930;48.232;12.384;2023-12-20T02:58:17;6.10;99.90
9293;DHT22;69930;48.232;12.384;2023-12-20T03:00:44;6.00;99.90
9293;DHT22;69930;48.232;12.384;2023-12-20T03:03:12;6.00;99.90
9293;DHT22;69930;48.232;12.384;2023-12-20T03:05:39;6.00;99.90
9293;DHT22;69930;48.232;12.384;2023-12-20T03:08:06;5.90;99.90
9293;DHT22;69930;48.232;12.384;2023-12-20T03:10:33;5.90;99.90
9293;DHT22;69930;48.232;12.384;2023-12-20T03:13:02;5.90;99.90
9293;DHT22;69930;48.232;12.384;2023-12-20T03:15:30;5.90;99.90
9293;DHT22;69930;48.232;12.384;2023-12-20T03:17:57;5.90;99.90
9293;DHT22;69930;48.232;12.384;2023-12-20T03:20:24;5.90;99.90
9293;DHT22;69930;48.232;12.384;2023-12-20T03:22:52;5.90;99.90
9293;DHT22;69930;48.232;12.384;2023-12-20T03:25:19;6.00;99.90
9293;DHT22;69930;48.232;12.384;2023-12-20T03:27:46;6.00;99.90
9293;DHT22;69930;48.232;12.384;2023-12-20T03:30:15;6.10;99.90
9293;DHT22;69930;48.232;12.384;2023-12-20T03:32:42;6.10;99.90
9293;DHT22;69930;48.232;12.384;2023-12-20T03:35:09;6.20;99.90
9293;DHT22;69930;48.232;12.384;2023-12-20T07:33:02;6.60;99.90
9293;DHT22;69930;48.232;12.384;2023-12-20T07:35:33;6.60;99.90
9293;DHT22;69930;48.232;12.384;2023-12-20T07:38:02;6.60;99.90
9293;DHT22;69930;48.232;12.384;2023-12-20T07:40:30;6.60;99.90
9293;DHT22;69930;48.232;12.384;2023-12-20T07:43:11;6.60;99.90
9293;DHT22;69930;48.232;12.384;2023-12-20T07:45:39;6.60;99.90
9293;DHT22;69930;48.232;12.384;2023-12-20T07:48:20;6.60;99.90
9293;DHT22;69930;48.232;12.384;2023-12-20T07:51:01;6.60;99.90
9293;DHT22;69930;48.232;12.384;2023-12-20T07:53:28;6.60;99.90
9293;DHT22;69930;48.232;12.384;2023-12-20T07:55:56;6.60;99.90
9293;DHT22;69930;48.232;12.384;2023-12-20T07:58:27;6.60;99.90
9293;DHT22;69930;48.232;12.384;2023-12-20T08:12:44;6.50;99.90
9293;DHT22;69930;48.232;12.384;2023-12-20T08:15:13;6.60;99.90
9293;DHT22;69930;48.232;12.384;2023-12-20T08:17:41;6.50;99.90
9293;DHT22;69930;48.232;12.384;2023-12-20T08:20:09;6.60;99.90
9293;DHT22;69930;48.232;12.384;2023-12-20T08:22:36;6.60;99.90
9293;DHT22;69930;48.232;12.384;2023-12-20T08:25:05;6.60;99.90
9293;DHT22;69930;48.232;12.384;2023-12-20T08:27:32;6.60;99.90
9293;DHT22;69930;48.232;12.384;2023-12-20T08:30:24;6.60;99.90
9293;DHT22;69930;48.232;12.384;2023-12-20T08:33:06;6.60;99.90
9293;DHT22;69930;48.232;12.384;2023-12-20T08:35:37;6.60;99.90
9293;DHT22;69930;48.232;12.384;2023-12-20T08:38:04;6.70;99.90
9293;DHT22;69930;48.232;12.384;2023-12-20T08:40:37;6.70;99.90
9293;DHT22;69930;48.232;12.384;2023-12-20T08:43:05;6.60;99.90
9293;DHT22;69930;48.232;12.384;2023-12-20T08:45:34;6.70;99.90
9293;DHT22;69930;48.232;12.384;2023-12-20T08:48:02;6.70;99.90
9293;DHT22;69930;48.232;12.384;2023-12-20T08:50:30;6.70;99.90
9293;DHT22;69930;48.232;12.384;2023-12-20T08:53:03;6.70;99.90
9293;DHT22;69930;48.232;12.384;2023-12-20T08:55:30;6.70;99.90
9293;DHT22;69930;48.232;12.384;2023-12-20T08:57:58;6.70;99.90
9293;DHT22;69930;48.232;12.384;2023-12-20T09:00:26;6.70;99.90
9293;DHT22;69930;48.232;12.384;2023-12-20T09:03:15;6.70;99.90
9293;DHT22;69930;48.232;12.384;2023-12-20T09:05:42;6.70;99.90
9293;DHT22;69930;48.232;12.384;2023-12-20T09:08:09;6.70;99.90
9293;DHT22;69930;48.232;12.384;2023-12-20T09:10:37;6.70;99.90
9293;DHT22;69930;48.232;12.384;2023-12-20T09:13:04;6.70;99.90
9293;DHT22;69930;48.232;12.384;2023-12-20T09:15:31;6.60;99.90
9293;DHT22;69930;48.232;12.384;2023-12-20T09:18:00;6.60;99.90
9293;DHT22;69930;48.232;12.384;2023-12-20T09:20:28;6.60;99.90
9293;DHT22;69930;48.232;12.384;2023-12-20T09:22:55;6.60;99.90
9293;DHT22;69930;48.232;12.384;2023-12-20T09:25:22;6.60;99.90
9293;DHT22;69930;48.232;12.384;2023-12-20T09:27:49;6.60;99.90
9293;DHT22;69930;48.232;12.384;2023-12-20T09:30:18;6.60;99.90
9293;DHT22;69930;48.232;12.384;2023-12-20T09:32:45;6.50;99.90
9293;DHT22;69930;48.232;12.384;2023-12-20T09:35:13;6.50;99.90
9293;DHT22;69930;48.232;12.384;2023-12-20T09:37:42;6.50;99.90
9293;DHT22;69930;48.232;12.384;2023-12-20T09:40:12;6.50;99.90
9293;DHT22;69930;48.232;12.384;2023-12-20T09:42:48;6.50;99.90
9293;DHT22;69930;48.232;12.384;2023-12-20T09:45:20;6.50;99.90
9293;DHT22;69930;48.232;12.384;2023-12-20T09:47:49;6.50;99.90
9293;DHT22;69930;48.232;12.384;2023-12-20T09:50:18;6.60;99.90
9293;DHT22;69930;48.232;12.384;2023-12-20T09:52:51;6.60;99.90
9293;DHT22;69930;48.232;12.384;2023-12-20T09:55:19;6.60;99.90
9293;DHT22;69930;48.232;12.384;2023-12-20T09:57:46;6.60;99.90
9293;DHT22;69930;48.232;12.384;2023-12-20T10:00:14;6.70;99.90
9293;DHT22;69930;48.232;12.384;2023-12-20T10:02:49;6.70;99.90
9293;DHT22;69930;48.232;12.384;2023-12-20T10:05:17;6.70;99.90
9293;DHT22;69930;48.232;12.384;2023-12-20T10:07:46;6.70;99.90
9293;DHT22;69930;48.232;12.384;2023-12-20T10:10:14;6.70;99.90
9293;DHT22;69930;48.232;12.384;2023-12-20T10:13:01;6.70;99.90
9293;DHT22;69930;48.232;12.384;2023-12-20T10:15:29;6.80;99.90
9293;DHT22;69930;48.232;12.384;2023-12-20T10:17:57;6.80;99.90
9293;DHT22;69930;48.232;12.384;2023-12-20T10:20:24;6.80;99.90
9293;DHT22;69930;48.232;12.384;2023-12-20T10:22:52;6.80;99.90
9293;DHT22;69930;48.232;12.384;2023-12-20T10:25:22;6.80;99.90
9293;DHT22;69930;48.232;12.384;2023-12-20T10:27:50;6.70;99.90
9293;DHT22;69930;48.232;12.384;2023-12-20T10:30:17;6.70;99.90
9293;DHT22;69930;48.232;12.384;2023-12-20T10:32:44;6.60;99.90
9293;DHT22;69930;48.232;12.384;2023-12-20T10:35:13;6.60;99.90
9293;DHT22;69930;48.232;12.384;2023-12-20T10:37:40;6.60;99.90
9293;DHT22;69930;48.232;12.384;2023-12-20T10:40:09;6.60;99.90
9293;DHT22;69930;48.232;12.384;2023-12-20T10:42:38;6.60;99.90
9293;DHT22;69930;48.232;12.384;2023-12-20T10:45:07;6.70;99.90
9293;DHT22;69930;48.232;12.384;2023-12-20T10:47:35;6.70;99.90
9293;DHT22;69930;48.232;12.384;2023-12-20T10:50:05;6.70;99.90
9293;DHT22;69930;48.232;12.384;2023-12-20T10:52:34;6.80;99.90
9293;DHT22;69930;48.232;12.384;2023-12-20T10:55:03;6.90;99.90
9293;DHT22;69930;48.232;12.384;2023-12-20T10:57:31;7.00;99.90
9293;DHT22;69930;48.232;12.384;2023-12-20T11:00:01;7.00;99.90
9293;DHT22;69930;48.232;12.384;2023-12-20T11:02:32;7.10;99.90
9293;DHT22;69930;48.232;12.384;2023-12-20T11:05:04;7.10;99.90
9293;DHT22;69930;48.232;12.384;2023-12-20T11:07:38;7.10;99.90
9293;DHT22;69930;48.232;12.384;2023-12-20T11:10:13;7.20;99.90
9293;DHT22;69930;48.232;12.384;2023-12-20T11:12:48;7.20;99.90
9293;DHT22;69930;48.232;12.384;2023-12-20T11:15:19;7.20;99.90
9293;DHT22;69930;48.232;12.384;2023-12-20T11:17:54;7.20;99.90
9293;DHT22;69930;48.232;12.384;2023-12-20T11:20:23;7.20;99.90
9293;DHT22;69930;48.232;12.384;2023-12-20T11:22:54;7.20;99.90
9293;DHT22;69930;48.232;12.384;2023-12-20T11:25:21;7.20;99.90
9293;DHT22;69930;48.232;12.384;2023-12-20T11:28:20;7.30;99.90
9293;DHT22;69930;48.232;12.384;2023-12-20T11:30:52;7.30;99.90
9293;DHT22;69930;48.232;12.384;2023-12-20T11:33:24;7.30;99.90
9293;DHT22;69930;48.232;12.384;2023-12-20T11:35:51;7.30;99.90
9293;DHT22;69930;48.232;12.384;2023-12-20T11:38:20;7.30;99.90
9293;DHT22;69930;48.232;12.384;2023-12-20T11:40:48;7.30;99.90
9293;DHT22;69930;48.232;12.384;2023-12-20T11:43:30;7.40;99.90
9293;DHT22;69930;48.232;12.384;2023-12-20T11:46:04;7.40;99.90
9293;DHT22;69930;48.232;12.384;2023-12-20T11:48:37;7.30;99.90
9293;DHT22;69930;48.232;12.384;2023-12-20T11:51:09;7.40;99.90
9293;DHT22;69930;48.232;12.384;2023-12-20T11:53:36;7.30;99.90
9293;DHT22;69930;48.232;12.384;2023-12-20T11:56:08;7.40;99.90
9293;DHT22;69930;48.232;12.384;2023-12-20T11:58:42;7.30;99.90
9293;DHT22;69930;48.232;12.384;2023-12-20T12:01:12;7.30;99.90
9293;DHT22;69930;48.232;12.384;2023-12-20T12:03:40;7.40;99.90
9293;DHT22;69930;48.232;12.384;2023-12-20T12:06:08;7.40;99.90
9293;DHT22;69930;48.232;12.384;2023-12-20T12:08:36;7.50;99.90
9293;DHT22;69930;48.232;12.384;2023-12-20T12:11:03;7.50;99.90
9293;DHT22;69930;48.232;12.384;2023-12-20T12:13:31;7.60;99.90
9293;DHT22;69930;48.232;12.384;2023-12-20T12:15:59;7.60;99.90
9293;DHT22;69930;48.232;12.384;2023-12-20T12:18:28;7.70;99.90
9293;DHT22;69930;48.232;12.384;2023-12-20T12:21:02;7.80;99.90
9293;DHT22;69930;48.232;12.384;2023-12-20T12:23:29;7.80;99.90
9293;DHT22;69930;48.232;12.384;2023-12-20T12:25:56;7.80;99.90
9293;DHT22;69930;48.232;12.384;2023-12-20T12:28:26;7.70;99.90
9293;DHT22;69930;48.232;12.384;2023-12-20T12:30:57;7.70;99.90
9293;DHT22;69930;48.232;12.384;2023-12-20T12:33:25;7.80;99.90
9293;DHT22;69930;48.232;12.384;2023-12-20T12:35:55;7.80;99.90
9293;DHT22;69930;48.232;12.384;2023-12-20T12:41:13;7.80;99.90
9293;DHT22;69930;48.232;12.384;2023-12-20T12:46:37;7.80;99.90
9293;DHT22;69930;48.232;12.384;2023-12-20T12:49:04;7.80;99.90
9293;DHT22;69930;48.232;12.384;2023-12-20T12:51:33;7.60;99.90
9293;DHT22;69930;48.232;12.384;2023-12-20T12:54:00;7.40;99.90
9293;DHT22;69930;48.232;12.384;2023-12-20T12:56:27;7.30;99.90
9293;DHT22;69930;48.232;12.384;2023-12-20T12:58:55;7.30;99.90
9293;DHT22;69930;48.232;12.384;2023-12-20T13:01:22;7.30;99.90
9293;DHT22;69930;48.232;12.384;2023-12-20T13:03:49;7.30;99.90
9293;DHT22;69930;48.232;12.384;2023-12-20T13:06:16;7.40;99.90
9293;DHT22;69930;48.232;12.384;2023-12-20T13:08:44;7.40;99.90
9293;DHT22;69930;48.232;12.384;2023-12-20T13:11:12;7.30;99.90
9293;DHT22;69930;48.232;12.384;2023-12-20T13:13:39;7.20;99.90
9293;DHT22;69930;48.232;12.384;2023-12-20T13:16:06;7.10;99.90
9293;DHT22;69930;48.232;12.384;2023-12-20T13:18:33;7.10;99.90
9293;DHT22;69930;48.232;12.384;2023-12-20T13:21:00;7.10;99.90
9293;DHT22;69930;48.232;12.384;2023-12-20T13:23:27;7.10;99.90
9293;DHT22;69930;48.232;12.384;2023-12-20T13:25:56;7.10;99.90
9293;DHT22;69930;48.232;12.384;2023-12-20T13:28:23;7.20;99.90
9293;DHT22;69930;48.232;12.384;2023-12-20T13:30:50;7.20;99.90
9293;DHT22;69930;48.232;12.384;2023-12-20T13:33:18;7.10;99.90
9293;DHT22;69930;48.232;12.384;2023-12-20T13:35:45;7.10;99.90
9293;DHT22;69930;48.232;12.384;2023-12-20T13:38:12;7.10;99.90
9293;DHT22;69930;48.232;12.384;2023-12-20T13:40:40;7.20;99.90
9293;DHT22;69930;48.232;12.384;2023-12-20T13:43:09;7.20;99.90
9293;DHT22;69930;48.232;12.384;2023-12-20T13:45:36;7.10;99.90
9293;DHT22;69930;48.232;12.384;2023-12-20T13:48:04;7.20;99.90
9293;DHT22;69930;48.232;12.384;2023-12-20T13:50:31;7.20;99.90
9293;DHT22;69930;48.232;12.384;2023-12-20T13:52:59;7.10;99.90
9293;DHT22;69930;48.232;12.384;2023-12-20T13:55:26;7.10;99.90
9293;DHT22;69930;48.232;12.384;2023-12-20T13:57:54;7.20;99.90
9293;DHT22;69930;48.232;12.384;2023-12-20T14:00:30;7.20;99.90
9293;DHT22;69930;48.232;12.384;2023-12-20T14:02:57;7.20;99.90
9293;DHT22;69930;48.232;12.384;2023-12-20T14:05:25;7.20;99.90
9293;DHT22;69930;48.232;12.384;2023-12-20T14:07:53;7.20;99.90
9293;DHT22;69930;48.232;12.384;2023-12-20T14:10:23;7.10;99.90
9293;DHT22;69930;48.232;12.384;2023-12-20T14:21:27;7.10;99.90
9293;DHT22;69930;48.232;12.384;2023-12-20T14:23:55;7.10;99.90
9293;DHT22;69930;48.232;12.384;2023-12-20T14:26:36;7.10;99.90
9293;DHT22;69930;48.232;12.384;2023-12-20T14:29:11;7.00;99.90
9293;DHT22;69930;48.232;12.384;2023-12-20T14:31:39;7.00;99.90
9293;DHT22;69930;48.232;12.384;2023-12-20T14:34:15;7.00;99.90
9293;DHT22;69930;48.232;12.384;2023-12-20T14:36:47;6.90;99.90
9293;DHT22;69930;48.232;12.384;2023-12-20T15:16:54;6.60;99.90
9293;DHT22;69930;48.232;12.384;2023-12-20T15:19:22;6.60;99.90
9293;DHT22;69930;48.232;12.384;2023-12-20T15:21:49;6.60;99.90
9293;DHT22;69930;48.232;12.384;2023-12-20T15:24:17;6.60;99.90
9293;DHT22;69930;48.232;12.384;2023-12-20T15:26:46;6.50;99.90
9293;DHT22;69930;48.232;12.384;2023-12-20T15:32:09;6.50;99.90
9293;DHT22;69930;48.232;12.384;2023-12-20T15:34:37;6.40;99.90
9293;DHT22;69930;48.232;12.384;2023-12-20T15:37:04;6.50;99.90
9293;DHT22;69930;48.232;12.384;2023-12-20T15:42:27;6.40;99.90
9293;DHT22;69930;48.232;12.384;2023-12-20T15:47:56;6.20;99.90
9293;DHT22;69930;48.232;12.384;2023-12-20T15:50:23;6.10;99.90
9293;DHT22;69930;48.232;12.384;2023-12-20T15:52:51;6.00;99.90
9293;DHT22;69930;48.232;12.384;2023-12-20T15:55:18;6.00;99.90
9293;DHT22;69930;48.232;12.384;2023-12-20T16:00:41;5.90;99.90
9293;DHT22;69930;48.232;12.384;2023-12-20T16:20:46;5.60;99.90
9293;DHT22;69930;48.232;12.384;2023-12-20T16:29:05;5.40;99.90
9293;DHT22;69930;48.232;12.384;2023-12-20T17:14:38;4.80;99.90
9293;DHT22;69930;48.232;12.384;2023-12-20T17:17:05;4.70;99.90
9293;DHT22;69930;48.232;12.384;2023-12-20T17:19:34;4.70;99.90
9293;DHT22;69930;48.232;12.384;2023-12-20T17:22:01;4.70;99.90
9293;DHT22;69930;48.232;12.384;2023-12-20T17:24:30;4.70;99.90
9293;DHT22;69930;48.232;12.384;2023-12-20T17:44:48;4.70;99.90
9293;DHT22;69930;48.232;12.384;2023-12-20T17:56:14;4.70;99.90
9293;DHT22;69930;48.232;12.384;2023-12-20T18:13:31;4.60;99.90
9293;DHT22;69930;48.232;12.384;2023-12-20T18:15:58;4.60;99.90
9293;DHT22;69930;48.232;12.384;2023-12-20T18:18:25;4.60;99.90
9293;DHT22;69930;48.232;12.384;2023-12-20T18:20:52;4.60;99.90
9293;DHT22;69930;48.232;12.384;2023-12-20T18:23:20;4.60;99.90
9293;DHT22;69930;48.232;12.384;2023-12-20T18:25:47;4.60;99.90
9293;DHT22;69930;48.232;12.384;2023-12-20T18:28:19;4.60;99.90
9293;DHT22;69930;48.232;12.384;2023-12-20T18:30:48;4.60;99.90
9293;DHT22;69930;48.232;12.384;2023-12-20T18:33:15;4.70;99.90
9293;DHT22;69930;48.232;12.384;2023-12-20T18:35:42;4.70;99.90
9293;DHT22;69930;48.232;12.384;2023-12-20T18:38:11;4.80;99.90
9293;DHT22;69930;48.232;12.384;2023-12-20T18:40:39;4.80;99.90
9293;DHT22;69930;48.232;12.384;2023-12-20T18:43:12;4.90;99.90
9293;DHT22;69930;48.232;12.384;2023-12-20T18:45:39;5.00;99.90
9293;DHT22;69930;48.232;12.384;2023-12-20T18:48:08;5.00;99.90
9293;DHT22;69930;48.232;12.384;2023-12-20T18:53:33;5.10;99.90
9293;DHT22;69930;48.232;12.384;2023-12-20T18:56:26;5.10;99.90
9293;DHT22;69930;48.232;12.384;2023-12-20T18:58:54;5.10;99.90
9293;DHT22;69930;48.232;12.384;2023-12-20T19:01:21;5.10;99.90
9293;DHT22;69930;48.232;12.384;2023-12-20T19:06:47;5.20;99.90
9293;DHT22;69930;48.232;12.384;2023-12-20T19:42:30;5.40;99.90
9293;DHT22;69930;48.232;12.384;2023-12-20T19:47:55;5.50;99.90
9293;DHT22;69930;48.232;12.384;2023-12-20T19:50:22;5.50;99.90
9293;DHT22;69930;48.232;12.384;2023-12-20T19:53:15;5.50;99.90
9293;DHT22;69930;48.232;12.384;2023-12-20T19:55:44;5.50;99.90
9293;DHT22;69930;48.232;12.384;2023-12-20T19:58:27;5.50;99.90
9293;DHT22;69930;48.232;12.384;2023-12-20T20:00:59;5.50;99.90
9293;DHT22;69930;48.232;12.384;2023-12-20T20:06:14;5.50;99.90
9293;DHT22;69930;48.232;12.384;2023-12-20T20:08:43;5.50;99.90
9293;DHT22;69930;48.232;12.384;2023-12-20T20:11:10;5.60;99.90
9293;DHT22;69930;48.232;12.384;2023-12-20T20:13:39;5.50;99.90
9293;DHT22;69930;48.232;12.384;2023-12-20T20:18:55;5.50;99.90
9293;DHT22;69930;48.232;12.384;2023-12-20T20:21:22;5.50;99.90
9293;DHT22;69930;48.232;12.384;2023-12-20T20:26:49;5.40;99.90
9293;DHT22;69930;48.232;12.384;2023-12-20T20:29:17;5.50;99.90
9293;DHT22;69930;48.232;12.384;2023-12-20T20:37:15;5.50;99.90
9293;DHT22;69930;48.232;12.384;2023-12-20T20:39:42;5.50;99.90
9293;DHT22;69930;48.232;12.384;2023-12-20T20:45:01;5.50;99.90
9293;DHT22;69930;48.232;12.384;2023-12-20T20:53:20;5.40;99.90
9293;DHT22;69930;48.232;12.384;2023-12-20T21:04:51;5.40;99.90
9293;DHT22;69930;48.232;12.384;2023-12-20T21:07:18;5.40;99.90
9293;DHT22;69930;48.232;12.384;2023-12-20T21:09:46;5.40;99.90
9293;DHT22;69930;48.232;12.384;2023-12-20T21:12:14;5.40;99.90
9293;DHT22;69930;48.232;12.384;2023-12-20T21:14:42;5.40;99.90
9293;DHT22;69930;48.232;12.384;2023-12-20T21:17:10;5.50;99.90
9293;DHT22;69930;48.232;12.384;2023-12-20T21:19:37;5.40;99.90
9293;DHT22;69930;48.232;12.384;2023-12-20T21:22:07;5.40;99.90
9293;DHT22;69930;48.232;12.384;2023-12-20T21:39:16;5.40;99.90
9293;DHT22;69930;48.232;12.384;2023-12-20T21:53:28;5.40;99.90
9293;DHT22;69930;48.232;12.384;2023-12-20T21:55:57;5.40;99.90
9293;DHT22;69930;48.232;12.384;2023-12-20T21:58:24;5.40;99.90
9293;DHT22;69930;48.232;12.384;2023-12-20T22:00:51;5.40;99.90
9293;DHT22;69930;48.232;12.384;2023-12-20T22:03:18;5.40;99.90
9293;DHT22;69930;48.232;12.384;2023-12-20T22:05:46;5.40;99.90
9293;DHT22;69930;48.232;12.384;2023-12-20T22:08:14;5.40;99.90
9293;DHT22;69930;48.232;12.384;2023-12-20T22:10:41;5.40;99.90
9293;DHT22;69930;48.232;12.384;2023-12-20T22:13:10;5.40;99.90
9293;DHT22;69930;48.232;12.384;2023-12-20T22:15:37;5.40;99.90
9293;DHT22;69930;48.232;12.384;2023-12-20T22:18:05;5.40;99.90
9293;DHT22;69930;48.232;12.384;2023-12-20T22:20:32;5.40;99.90
9293;DHT22;69930;48.232;12.384;2023-12-20T22:22:59;5.40;99.90
9293;DHT22;69930;48.232;12.384;2023-12-20T22:25:28;5.50;99.90
9293;DHT22;69930;48.232;12.384;2023-12-20T22:27:55;5.50;99.90
9293;DHT22;69930;48.232;12.384;2023-12-20T22:30:23;5.40;99.90
9293;DHT22;69930;48.232;12.384;2023-12-20T22:32:51;5.50;99.90
9293;DHT22;69930;48.232;12.384;2023-12-20T22:35:18;5.50;99.90
9293;DHT22;69930;48.232;12.384;2023-12-20T22:37:45;5.50;99.90
9293;DHT22;69930;48.232;12.384;2023-12-20T22:40:13;5.40;99.90
9293;DHT22;69930;48.232;12.384;2023-12-20T22:42:40;5.50;99.90
9293;DHT22;69930;48.232;12.384;2023-12-20T22:47:58;5.50;99.90
9293;DHT22;69930;48.232;12.384;2023-12-20T22:50:25;5.50;99.90
9293;DHT22;69930;48.232;12.384;2023-12-20T22:52:52;5.50;99.90
9293;DHT22;69930;48.232;12.384;2023-12-20T22:55:19;5.50;99.90
9293;DHT22;69930;48.232;12.384;2023-12-20T22:57:46;5.50;99.90
9293;DHT22;69930;48.232;12.384;2023-12-20T23:00:14;5.50;99.90
9293;DHT22;69930;48.232;12.384;2023-12-20T23:02:47;5.50;99.90
9293;DHT22;69930;48.232;12.384;2023-12-20T23:05:15;5.50;99.90
9293;DHT22;69930;48.232;12.384;2023-12-20T23:07:43;5.50;99.90
9293;DHT22;69930;48.232;12.384;2023-12-20T23:16:08;5.60;99.90
9293;DHT22;69930;48.232;12.384;2023-12-20T23:18:36;5.60;99.90
9293;DHT22;69930;48.232;12.384;2023-12-20T23:21:04;5.60;99.90
9293;DHT22;69930;48.232;12.384;2023-12-20T23:23:31;5.60;99.90
9293;DHT22;69930;48.232;12.384;2023-12-20T23:28:54;5.70;99.90
9293;DHT22;69930;48.232;12.384;2023-12-20T23:31:25;5.70;99.90
9293;DHT22;69930;48.232;12.384;2023-12-20T23:33:52;5.70;99.90
9293;DHT22;69930;48.232;12.384;2023-12-20T23:36:20;5.70;99.90
9293;DHT22;69930;48.232;12.384;2023-12-20T23:38:48;5.60;99.90
9293;DHT22;69930;48.232;12.384;2023-12-20T23:41:15;5.60;99.90
9293;DHT22;69930;48.232;12.384;2023-12-20T23:43:42;5.60;99.90
9293;DHT22;69930;48.232;12.384;2023-12-20T23:46:09;5.70;99.90
9293;DHT22;69930;48.232;12.384;2023-12-20T23:48:36;5.60;99.90
9293;DHT22;69930;48.232;12.384;2023-12-20T23:51:04;5.70;99.90
9293;DHT22;69930;48.232;12.384;2023-12-20T23:53:32;5.70;99.90
9293;DHT22;69930;48.232;12.384;2023-12-20T23:55:59;5.80;99.90
9293;DHT22;69930;48.232;12.384;2023-12-20T23:58:27;5.80;99.90
